createdAt,value
2019-01-21T00:00:53.790Z,38.80
2019-01-21T00:03:23.234Z,38.30
2019-01-21T00:05:52.569Z,37.07
2019-01-21T00:08:21.975Z,36.27
2019-01-21T00:10:51.367Z,36.40
2019-01-21T00:13:20.743Z,37.60
2019-01-21T00:15:50.280Z,43.20
2019-01-21T00:18:19.741Z,52.77
2019-01-21T00:20:49.095Z,37.47
2019-01-21T00:23:18.644Z,42.13
2019-01-21T00:25:48.112Z,38.90
2019-01-21T00:28:17.502Z,38.47
2019-01-21T00:30:47.060Z,39.57
2019-01-21T00:33:16.397Z,36.93
2019-01-21T00:35:45.749Z,36.50
2019-01-21T00:38:15.166Z,36.50
2019-01-21T00:40:44.513Z,35.40
2019-01-21T00:43:13.899Z,35.60
2019-01-21T00:45:43.359Z,36.57
2019-01-21T00:48:12.722Z,35.77
2019-01-21T00:50:42.062Z,36.90
2019-01-21T00:53:11.438Z,36.03
2019-01-21T00:55:40.809Z,38.30
2019-01-21T00:58:10.135Z,37.73
2019-01-21T01:00:39.583Z,38.73
2019-01-21T01:03:08.936Z,36.93
2019-01-21T01:05:38.368Z,37.77
2019-01-21T01:08:07.841Z,37.30
2019-01-21T01:10:37.201Z,36.80
2019-01-21T01:13:06.586Z,35.13
2019-01-21T01:15:36.084Z,36.87
2019-01-21T01:18:06.005Z,37.60
2019-01-21T01:20:35.424Z,38.20
2019-01-21T01:23:05.021Z,38.37
2019-01-21T01:25:34.356Z,38.33
2019-01-21T01:28:03.877Z,38.77
2019-01-21T01:30:33.336Z,38.03
2019-01-21T01:33:02.682Z,37.37
2019-01-21T01:35:32.128Z,38.00
2019-01-21T01:38:01.577Z,39.10
2019-01-21T01:40:30.943Z,38.13
2019-01-21T01:43:00.393Z,39.73
2019-01-21T01:45:29.886Z,38.47
2019-01-21T01:48:03.201Z,38.20
2019-01-21T01:50:33.091Z,39.03
2019-01-21T01:53:02.560Z,37.63
2019-01-21T01:55:32.968Z,40.83
2019-01-21T01:58:04.877Z,39.63
2019-01-21T02:00:34.796Z,39.10
2019-01-21T02:03:04.397Z,40.00
2019-01-21T02:05:33.876Z,39.03
2019-01-21T02:08:03.332Z,38.07
2019-01-21T02:10:33.596Z,40.43
2019-01-21T02:13:03.063Z,40.13
2019-01-21T02:15:32.402Z,39.70
2019-01-21T02:18:01.763Z,38.07
2019-01-21T02:20:31.327Z,39.73
2019-01-21T02:23:04.951Z,39.40
2019-01-21T02:25:47.856Z,41.50
2019-01-21T02:28:33.757Z,42.57
2019-01-21T02:31:55.381Z,41.80
2019-01-21T02:34:39.850Z,40.03
2019-01-21T02:37:51.980Z,39.57
2019-01-21T02:40:34.371Z,39.40
2019-01-21T02:44:06.110Z,39.00
2019-01-21T02:47:28.998Z,38.33
2019-01-21T02:50:48.671Z,35.57
2019-01-21T02:53:47.297Z,36.77
2019-01-21T02:56:55.302Z,36.03
2019-01-21T02:59:47.182Z,35.93
2019-01-21T03:03:00.957Z,37.60
2019-01-21T03:06:14.644Z,40.43
2019-01-21T03:09:30.939Z,42.00
2019-01-21T03:12:53.614Z,44.93
2019-01-21T03:16:07.172Z,45.20
2019-01-21T03:19:23.867Z,44.13
2019-01-21T03:22:45.873Z,45.57
2019-01-21T03:26:08.853Z,43.97
2019-01-21T03:29:26.317Z,42.30
2019-01-21T03:32:31.483Z,44.70
2019-01-21T03:35:29.738Z,45.23
2019-01-21T03:38:33.819Z,44.27
2019-01-21T03:41:53.358Z,43.07
2019-01-21T03:44:43.781Z,44.07
2019-01-21T03:47:50.400Z,42.50
2019-01-21T03:50:57.359Z,42.87
2019-01-21T03:53:57.518Z,44.30
2019-01-21T03:56:41.806Z,46.23
2019-01-21T03:59:30.211Z,44.07
2019-01-21T04:02:35.503Z,42.00
2019-01-21T04:05:45.420Z,45.47
2019-01-21T04:09:11.222Z,43.20
2019-01-21T04:12:10.749Z,45.67
2019-01-21T04:15:06.023Z,43.83
2019-01-21T04:18:11.490Z,41.30
2019-01-21T04:21:07.322Z,42.07
2019-01-21T04:23:53.808Z,44.63
2019-01-21T04:26:46.143Z,44.50
2019-01-21T04:30:07.866Z,43.07
2019-01-21T04:33:29.711Z,47.10
2019-01-21T04:36:44.944Z,43.27
2019-01-21T04:39:42.862Z,46.10
2019-01-21T04:42:42.887Z,44.57
2019-01-21T04:46:19.178Z,46.47
2019-01-21T04:49:24.271Z,44.03
2019-01-21T04:52:26.100Z,43.70
2019-01-21T04:55:23.365Z,45.23
2019-01-21T04:58:34.332Z,46.57
2019-01-21T05:01:31.041Z,43.43
2019-01-21T05:04:46.642Z,45.17
2019-01-21T05:08:09.610Z,44.63
2019-01-21T05:11:24.510Z,46.60
2019-01-21T05:14:27.509Z,49.07
2019-01-21T05:17:11.939Z,45.00
2019-01-21T05:20:32.234Z,45.20
2019-01-21T05:23:44.888Z,44.97
2019-01-21T05:26:38.613Z,47.43
2019-01-21T05:29:37.706Z,47.13
2019-01-21T05:32:23.176Z,44.63
2019-01-21T05:35:57.977Z,43.83
2019-01-21T05:38:34.344Z,47.53
2019-01-21T05:41:35.980Z,55.70
2019-01-21T05:44:28.226Z,56.53
2019-01-21T05:47:44.733Z,54.77
2019-01-21T05:51:16.287Z,64.37
2019-01-21T05:54:35.787Z,62.23
2019-01-21T05:58:01.506Z,63.57
2019-01-21T06:01:05.577Z,60.47
2019-01-21T06:04:01.342Z,58.30
2019-01-21T06:07:22.684Z,57.20
2019-01-21T06:10:05.093Z,61.30
2019-01-21T06:13:04.454Z,55.40
2019-01-21T06:16:28.925Z,49.53
2019-01-21T06:19:40.300Z,46.17
2019-01-21T06:22:31.871Z,45.00
2019-01-21T06:25:18.633Z,45.57
2019-01-21T06:28:24.832Z,44.73
2019-01-21T06:31:30.943Z,43.80
2019-01-21T06:34:40.445Z,45.47
2019-01-21T06:37:34.713Z,44.57
2019-01-21T06:40:59.603Z,44.23
2019-01-21T06:44:11.915Z,46.17
2019-01-21T06:47:31.841Z,48.40
2019-01-21T06:50:23.912Z,53.90
2019-01-21T06:53:26.404Z,48.97
2019-01-21T06:56:47.619Z,49.90
2019-01-21T06:59:51.365Z,47.37
2019-01-21T07:03:03.691Z,47.50
2019-01-21T07:06:13.789Z,53.03
2019-01-21T07:09:15.340Z,50.37
2019-01-21T07:12:25.813Z,51.03
2019-01-21T07:15:26.942Z,48.93
2019-01-21T07:18:14.482Z,51.50
2019-01-21T07:21:09.658Z,50.53
2019-01-21T07:24:19.674Z,49.17
2019-01-21T07:27:36.993Z,48.80
2019-01-21T07:30:32.643Z,51.73
2019-01-21T07:33:36.918Z,48.77
2019-01-21T07:36:42.117Z,47.37
2019-01-21T07:39:47.460Z,51.53
2019-01-21T07:42:47.629Z,49.47
2019-01-21T07:45:34.640Z,46.23
2019-01-21T07:48:28.813Z,46.70
2019-01-21T07:51:57.051Z,54.07
2019-01-21T07:55:16.539Z,58.23
2019-01-21T07:58:13.258Z,66.33
2019-01-21T08:01:05.915Z,66.17
2019-01-21T08:04:12.233Z,56.07
2019-01-21T08:07:25.325Z,62.80
2019-01-21T08:10:43.888Z,56.50
2019-01-21T08:13:57.395Z,54.60
2019-01-21T08:17:07.772Z,53.03
2019-01-21T08:20:17.734Z,53.77
2019-01-21T08:23:24.135Z,57.00
2019-01-21T08:26:34.439Z,56.47
2019-01-21T08:29:18.384Z,57.43
2019-01-21T08:32:31.907Z,56.60
2019-01-21T08:35:38.729Z,59.47
2019-01-21T08:38:52.643Z,55.97
2019-01-21T08:41:58.084Z,55.00
2019-01-21T08:44:47.551Z,54.93
2019-01-21T08:47:55.867Z,55.67
2019-01-21T08:51:06.937Z,55.77
2019-01-21T08:54:03.881Z,53.60
2019-01-21T08:56:48.647Z,53.00
2019-01-21T08:59:31.261Z,50.83
2019-01-21T09:02:24.270Z,49.93
2019-01-21T09:05:40.925Z,52.87
2019-01-21T09:08:53.470Z,55.83
2019-01-21T09:11:52.010Z,52.30
2019-01-21T09:14:53.821Z,49.87
2019-01-21T09:17:46.852Z,49.63
2019-01-21T09:20:53.068Z,48.20
2019-01-21T09:24:17.456Z,47.07
2019-01-21T09:27:31.162Z,51.57
2019-01-21T09:30:39.171Z,49.30
2019-01-21T09:33:31.095Z,49.20
2019-01-21T09:36:40.196Z,49.90
2019-01-21T09:39:59.725Z,49.97
2019-01-21T09:43:11.780Z,48.93
2019-01-21T09:46:31.287Z,46.33
2019-01-21T09:48:59.067Z,49.57
2019-01-21T09:51:28.641Z,47.83
2019-01-21T09:53:58.911Z,48.67
2019-01-21T09:56:32.081Z,47.17
2019-01-21T09:59:01.495Z,50.57
2019-01-21T10:01:33.915Z,47.50
2019-01-21T10:04:04.697Z,45.77
2019-01-21T10:06:46.917Z,45.67
2019-01-21T10:09:27.006Z,45.47
2019-01-21T10:12:43.346Z,47.07
2019-01-21T10:15:50.248Z,46.40
2019-01-21T10:18:57.157Z,46.07
2019-01-21T10:21:42.034Z,45.97
2019-01-21T10:24:57.743Z,46.83
2019-01-21T10:27:54.205Z,46.23
2019-01-21T10:31:00.196Z,47.47
2019-01-21T10:33:57.897Z,47.13
2019-01-21T10:37:21.662Z,49.37
2019-01-21T10:40:17.291Z,47.33
2019-01-21T10:43:01.547Z,47.43
2019-01-21T10:46:10.791Z,47.47
2019-01-21T10:49:20.228Z,47.83
2019-01-21T10:52:33.554Z,49.20
2019-01-21T10:55:41.833Z,49.50
2019-01-21T10:58:39.133Z,49.00
2019-01-21T11:01:33.494Z,49.40
2019-01-21T11:05:02.279Z,48.83
2019-01-21T11:08:08.024Z,45.70
2019-01-21T11:11:09.931Z,48.07
2019-01-21T11:13:58.057Z,48.37
2019-01-21T11:16:59.686Z,49.23
2019-01-21T11:20:04.248Z,48.83
2019-01-21T11:23:00.462Z,48.97
2019-01-21T11:26:15.693Z,50.43
2019-01-21T11:29:12.965Z,47.77
2019-01-21T11:32:41.690Z,48.27
2019-01-21T11:36:01.302Z,47.53
2019-01-21T11:39:23.663Z,50.40
2019-01-21T11:42:46.458Z,47.63
2019-01-21T11:45:48.117Z,47.47
2019-01-21T11:49:07.122Z,50.07
2019-01-21T11:52:23.929Z,50.30
2019-01-21T11:55:32.859Z,50.90
2019-01-21T11:58:37.662Z,50.23
2019-01-21T12:01:32.592Z,49.07
2019-01-21T12:04:40.390Z,50.90
2019-01-21T12:07:56.797Z,49.43
2019-01-21T12:10:57.849Z,49.40
2019-01-21T12:14:23.330Z,48.40
2019-01-21T12:17:18.520Z,48.53
2019-01-21T12:20:47.387Z,50.27
2019-01-21T12:24:16.322Z,53.07
2019-01-21T12:26:59.698Z,49.93
2019-01-21T12:30:06.067Z,50.53
2019-01-21T12:33:03.221Z,50.37
2019-01-21T12:36:34.837Z,51.27
2019-01-21T12:39:45.550Z,51.27
2019-01-21T12:42:58.173Z,51.50
2019-01-21T12:45:58.983Z,50.73
2019-01-21T12:48:55.468Z,52.00
2019-01-21T12:52:14.636Z,54.20
2019-01-21T12:55:31.674Z,54.03
2019-01-21T12:58:40.961Z,53.97
2019-01-21T13:01:35.119Z,53.70
2019-01-21T13:05:00.858Z,58.57
2019-01-21T13:08:06.976Z,54.87
2019-01-21T13:11:20.710Z,54.27
2019-01-21T13:14:46.626Z,56.30
2019-01-21T13:18:02.603Z,56.77
2019-01-21T13:21:34.681Z,51.67
2019-01-21T13:24:35.517Z,53.90
2019-01-21T13:27:51.934Z,54.47
2019-01-21T13:30:59.503Z,52.80
2019-01-21T13:34:07.411Z,51.77
2019-01-21T13:36:59.778Z,53.63
2019-01-21T13:40:04.609Z,53.97
2019-01-21T13:43:01.923Z,50.93
2019-01-21T13:45:56.386Z,51.90
2019-01-21T13:49:07.758Z,53.23
2019-01-21T13:52:23.849Z,56.20
2019-01-21T13:55:18.530Z,52.90
2019-01-21T13:58:23.481Z,53.73
2019-01-21T14:01:05.516Z,52.97
2019-01-21T14:03:53.645Z,53.73
2019-01-21T14:06:40.670Z,54.10
2019-01-21T14:09:42.166Z,55.90
2019-01-21T14:12:43.309Z,53.80
2019-01-21T14:15:30.471Z,54.33
2019-01-21T14:18:53.009Z,56.53
2019-01-21T14:21:42.391Z,53.03
2019-01-21T14:25:10.946Z,55.30
2019-01-21T14:28:26.556Z,56.07
2019-01-21T14:31:17.428Z,55.23
2019-01-21T14:34:07.981Z,54.10
2019-01-21T14:36:56.145Z,72.00
2019-01-21T14:39:57.864Z,64.33
2019-01-21T14:43:08.495Z,76.70
2019-01-21T14:46:08.040Z,61.50
2019-01-21T14:49:19.184Z,57.57
2019-01-21T14:52:56.984Z,81.03
2019-01-21T14:55:38.184Z,63.03
2019-01-21T14:58:32.319Z,58.33
2019-01-21T15:01:50.665Z,57.23
2019-01-21T15:04:59.897Z,55.80
2019-01-21T15:07:58.264Z,58.33
2019-01-21T15:10:57.584Z,57.63
2019-01-21T15:14:23.076Z,79.57
2019-01-21T15:17:27.912Z,60.77
2019-01-21T15:20:09.013Z,56.37
2019-01-21T15:23:37.773Z,57.63
2019-01-21T15:26:44.744Z,56.87
2019-01-21T15:29:46.693Z,58.43
2019-01-21T15:32:48.338Z,55.97
2019-01-21T15:36:10.984Z,58.53
2019-01-21T15:39:19.600Z,76.77
2019-01-21T15:42:28.419Z,86.33
2019-01-21T15:45:50.794Z,76.27
2019-01-21T15:49:05.886Z,60.57
2019-01-21T15:52:12.711Z,59.37
2019-01-21T15:55:29.482Z,62.47
2019-01-21T15:58:41.549Z,59.80
2019-01-21T16:01:48.469Z,67.07
2019-01-21T16:04:51.217Z,67.67
2019-01-21T16:07:40.721Z,67.17
2019-01-21T16:10:27.417Z,59.00
2019-01-21T16:13:30.820Z,59.97
2019-01-21T16:16:35.830Z,60.77
2019-01-21T16:19:14.813Z,62.23
2019-01-21T16:22:17.244Z,63.40
2019-01-21T16:25:25.595Z,64.83
2019-01-21T16:28:16.742Z,67.17
2019-01-21T16:30:57.677Z,59.77
2019-01-21T16:34:09.943Z,60.63
2019-01-21T16:36:50.551Z,62.17
2019-01-21T16:39:43.288Z,61.03
2019-01-21T16:42:14.696Z,62.17
2019-01-21T16:44:46.356Z,61.27
2019-01-21T16:47:16.018Z,61.53
2019-01-21T16:49:45.415Z,60.50
2019-01-21T16:52:14.846Z,60.70
2019-01-21T16:54:44.297Z,59.50
2019-01-21T16:57:13.741Z,61.40
2019-01-21T16:59:43.130Z,60.77
2019-01-21T17:02:12.563Z,61.90
2019-01-21T17:04:42.015Z,84.00
2019-01-21T17:07:11.517Z,62.97
2019-01-21T17:09:40.933Z,62.83
2019-01-21T17:12:10.382Z,59.43
2019-01-21T17:14:39.874Z,55.83
2019-01-21T17:19:39.017Z,62.20
2019-01-21T17:22:08.450Z,60.30
2019-01-21T17:24:37.905Z,57.97
2019-01-21T17:27:07.365Z,58.83
2019-01-21T17:29:36.797Z,59.40
2019-01-21T17:32:06.218Z,61.77
2019-01-21T17:34:35.637Z,64.07
2019-01-21T17:37:05.062Z,62.53
2019-01-21T17:39:34.524Z,66.67
2019-01-21T17:42:03.948Z,67.57
2019-01-21T17:44:33.369Z,64.83
2019-01-21T17:47:02.813Z,65.00
2019-01-21T17:49:32.183Z,65.63
2019-01-21T17:52:01.593Z,69.37
2019-01-21T17:54:34.827Z,68.37
2019-01-21T17:57:02.114Z,67.47
2019-01-21T17:59:31.611Z,67.07
2019-01-21T18:02:01.044Z,71.83
2019-01-21T18:04:30.398Z,68.97
2019-01-21T18:06:59.857Z,67.73
2019-01-21T18:09:29.206Z,65.53
2019-01-21T18:11:58.575Z,66.50
2019-01-21T18:14:27.991Z,67.00
2019-01-21T18:16:57.450Z,62.63
2019-01-21T18:19:26.901Z,64.43
2019-01-21T18:21:56.303Z,65.30
2019-01-21T18:24:25.699Z,64.13
2019-01-21T18:26:55.185Z,66.33
2019-01-21T18:29:24.675Z,64.20
2019-01-21T18:31:54.119Z,68.57
2019-01-21T18:34:23.526Z,66.17
2019-01-21T18:36:53.087Z,66.37
2019-01-21T18:39:23.479Z,67.53
2019-01-21T18:41:52.930Z,69.57
2019-01-21T18:44:22.351Z,71.50
2019-01-21T18:46:51.792Z,68.80
2019-01-21T18:49:22.886Z,71.00
2019-01-21T18:51:52.499Z,72.30
2019-01-21T18:54:21.891Z,73.90
2019-01-21T18:56:51.273Z,76.57
2019-01-21T18:59:20.747Z,72.30
2019-01-21T19:01:50.218Z,73.77
2019-01-21T19:04:19.656Z,70.33
2019-01-21T19:06:49.134Z,75.27
2019-01-21T19:09:18.521Z,74.60
2019-01-21T19:11:47.963Z,71.57
2019-01-21T19:14:17.378Z,69.90
2019-01-21T19:16:46.750Z,64.73
2019-01-21T19:19:16.191Z,63.00
2019-01-21T19:21:45.724Z,62.30
2019-01-21T19:24:15.178Z,62.63
2019-01-21T19:26:44.637Z,59.63
2019-01-21T19:29:14.045Z,63.73
2019-01-21T19:31:43.487Z,61.43
2019-01-21T19:34:12.939Z,63.07
2019-01-21T19:36:42.348Z,63.00
2019-01-21T19:39:11.735Z,65.47
2019-01-21T19:41:41.162Z,67.90
2019-01-21T19:44:10.637Z,67.03
2019-01-21T19:46:44.130Z,63.57
2019-01-21T19:49:11.108Z,65.57
2019-01-21T19:51:40.592Z,66.27
2019-01-21T19:54:10.163Z,68.03
2019-01-21T19:56:39.526Z,66.47
2019-01-21T19:59:09.042Z,65.97
2019-01-21T20:01:38.454Z,66.23
2019-01-21T20:04:07.825Z,67.87
2019-01-21T20:06:37.307Z,68.53
2019-01-21T20:09:08.813Z,69.40
2019-01-21T20:11:38.203Z,69.73
2019-01-21T20:14:07.587Z,67.43
2019-01-21T20:16:36.951Z,69.40
2019-01-21T20:19:06.288Z,68.37
2019-01-21T20:21:35.706Z,70.43
2019-01-21T20:24:05.054Z,66.87
2019-01-21T20:26:34.440Z,72.70
2019-01-21T20:29:04.176Z,66.93
2019-01-21T20:31:33.530Z,66.10
2019-01-21T20:34:02.982Z,70.33
2019-01-21T20:36:32.474Z,68.77
2019-01-21T20:39:01.851Z,71.27
2019-01-21T20:41:31.292Z,78.23
2019-01-21T20:44:00.803Z,76.53
2019-01-21T20:46:30.421Z,76.90
2019-01-21T20:49:01.072Z,75.20
2019-01-21T20:51:30.575Z,76.07
2019-01-21T20:54:00.044Z,73.23
2019-01-21T20:56:29.559Z,85.53
2019-01-21T20:58:59.067Z,83.23
2019-01-21T21:01:28.487Z,72.90
2019-01-21T21:03:57.855Z,79.17
2019-01-21T21:06:27.302Z,81.40
2019-01-21T21:08:56.673Z,79.97
2019-01-21T21:11:25.986Z,89.70
2019-01-21T21:13:55.451Z,78.20
2019-01-21T21:16:24.802Z,82.83
2019-01-21T21:18:55.662Z,79.57
2019-01-21T21:21:25.324Z,81.63
2019-01-21T21:23:54.655Z,84.07
2019-01-21T21:26:24.000Z,122.93
2019-01-21T21:28:53.434Z,182.37
2019-01-21T21:31:22.913Z,79.80
2019-01-21T21:33:52.307Z,164.43
2019-01-21T21:36:21.752Z,97.50
2019-01-21T21:38:51.144Z,97.50
2019-01-21T21:41:20.602Z,93.87
2019-01-21T21:43:50.023Z,102.20
2019-01-21T21:46:19.411Z,94.40
2019-01-21T21:48:48.838Z,90.93
2019-01-21T21:51:18.734Z,101.03
2019-01-21T21:53:48.173Z,92.00
2019-01-21T21:56:17.557Z,92.20
2019-01-21T21:58:46.985Z,93.00
2019-01-21T22:01:16.402Z,88.93
2019-01-21T22:03:47.492Z,88.83
2019-01-21T22:06:17.850Z,85.73
2019-01-21T22:08:47.274Z,82.70
2019-01-21T22:11:16.673Z,83.70
2019-01-21T22:13:46.133Z,79.57
2019-01-21T22:16:15.964Z,85.47
2019-01-21T22:18:45.374Z,88.40
2019-01-21T22:21:14.827Z,88.23
2019-01-21T22:23:44.258Z,87.17
2019-01-21T22:26:13.676Z,87.50
2019-01-21T22:28:43.770Z,83.27
2019-01-21T22:31:13.203Z,81.53
2019-01-21T22:33:42.661Z,84.63
2019-01-21T22:36:12.314Z,83.17
2019-01-21T22:38:41.789Z,81.10
2019-01-21T22:41:12.671Z,81.33
2019-01-21T22:43:42.158Z,76.97
2019-01-21T22:46:11.598Z,77.37
2019-01-21T22:48:41.042Z,75.27
2019-01-21T22:51:10.543Z,74.07
2019-01-21T22:53:40.374Z,72.73
2019-01-21T22:56:09.841Z,75.27
2019-01-21T22:58:39.365Z,71.33
2019-01-21T23:01:22.789Z,73.33
2019-01-21T23:03:52.609Z,79.43
2019-01-21T23:06:22.080Z,78.80
2019-01-21T23:08:51.542Z,86.67
2019-01-21T23:11:21.126Z,81.80
2019-01-21T23:13:50.781Z,78.97
2019-01-21T23:16:20.729Z,72.90
2019-01-21T23:18:50.189Z,70.40
2019-01-21T23:21:19.664Z,63.77
2019-01-21T23:23:49.106Z,55.93
2019-01-21T23:26:18.589Z,55.20
2019-01-21T23:28:48.447Z,56.60
2019-01-21T23:31:17.935Z,54.77
2019-01-21T23:33:47.433Z,58.50
2019-01-21T23:36:16.862Z,54.97
2019-01-21T23:38:46.352Z,55.97
2019-01-21T23:41:16.103Z,51.80
2019-01-21T23:43:45.578Z,53.17
2019-01-21T23:46:15.132Z,52.80
2019-01-21T23:48:44.638Z,52.37
2019-01-21T23:51:14.070Z,49.03
2019-01-21T23:53:43.483Z,45.07
2019-01-21T23:56:12.981Z,45.17
2019-01-21T23:58:42.441Z,43.53
